createdAt,value
2018-05-13T00:00:38.882Z,17.40
2018-05-13T00:03:06.487Z,17.40
2018-05-13T00:05:34.061Z,17.40
2018-05-13T00:08:01.633Z,17.40
2018-05-13T00:10:29.279Z,17.40
2018-05-13T00:12:57.656Z,17.30
2018-05-13T00:15:26.041Z,17.30
2018-05-13T00:17:53.635Z,17.30
2018-05-13T00:20:22.056Z,17.30
2018-05-13T00:22:49.662Z,17.30
2018-05-13T00:25:17.295Z,17.30
2018-05-13T00:27:45.682Z,17.20
2018-05-13T00:30:14.075Z,17.20
2018-05-13T00:32:41.676Z,17.20
2018-05-13T00:35:09.317Z,17.20
2018-05-13T00:37:36.965Z,17.20
2018-05-13T00:40:04.543Z,17.20
2018-05-13T00:42:32.132Z,17.20
2018-05-13T00:44:59.693Z,17.20
2018-05-13T00:47:27.301Z,17.20
2018-05-13T00:49:55.636Z,17.20
2018-05-13T00:52:23.275Z,17.10
2018-05-13T00:54:55.424Z,17.20
2018-05-13T00:57:23.023Z,17.20
2018-05-13T00:59:50.654Z,17.20
2018-05-13T01:02:18.336Z,17.10
2018-05-13T01:04:45.864Z,17.10
2018-05-13T01:07:13.451Z,17.10
2018-05-13T01:09:41.052Z,17.10
2018-05-13T01:12:08.607Z,17.10
2018-05-13T01:14:36.192Z,17.10
2018-05-13T01:17:03.768Z,17.10
2018-05-13T01:19:31.391Z,17.10
2018-05-13T01:21:58.986Z,17.10
2018-05-13T01:24:26.608Z,17.10
2018-05-13T01:26:54.231Z,17.10
2018-05-13T01:29:21.834Z,17.10
2018-05-13T01:31:49.512Z,17.00
2018-05-13T01:34:17.867Z,17.00
2018-05-13T01:36:45.533Z,17.00
2018-05-13T01:39:13.085Z,17.00
2018-05-13T01:41:40.719Z,17.00
2018-05-13T01:44:08.339Z,17.00
2018-05-13T01:46:35.987Z,17.00
2018-05-13T01:49:04.359Z,17.00
2018-05-13T01:51:32.839Z,17.00
2018-05-13T01:54:00.398Z,17.00
2018-05-13T01:56:28.019Z,17.00
2018-05-13T01:58:55.620Z,17.00
2018-05-13T02:01:24.007Z,16.90
2018-05-13T02:03:51.642Z,16.90
2018-05-13T02:06:19.240Z,16.80
2018-05-13T02:08:46.874Z,16.80
2018-05-13T02:11:14.435Z,16.80
2018-05-13T02:13:42.047Z,16.90
2018-05-13T02:16:09.628Z,16.80
2018-05-13T02:18:37.279Z,16.80
2018-05-13T02:21:04.876Z,16.80
2018-05-13T02:23:32.511Z,16.80
2018-05-13T02:26:00.932Z,16.80
2018-05-13T02:28:28.588Z,16.70
2018-05-13T02:30:56.185Z,16.80
2018-05-13T02:33:23.793Z,16.70
2018-05-13T02:35:51.360Z,16.70
2018-05-13T02:38:19.019Z,16.70
2018-05-13T02:40:46.649Z,16.80
2018-05-13T02:43:14.317Z,16.80
2018-05-13T02:45:41.950Z,16.70
2018-05-13T02:48:09.646Z,16.80
2018-05-13T02:50:37.302Z,16.70
2018-05-13T02:53:05.016Z,16.70
2018-05-13T02:55:32.593Z,16.80
2018-05-13T02:58:00.309Z,16.70
2018-05-13T03:00:28.003Z,16.70
2018-05-13T03:02:56.363Z,16.80
2018-05-13T03:05:23.958Z,16.80
2018-05-13T03:07:51.631Z,16.80
2018-05-13T03:10:19.220Z,17.00
2018-05-13T03:12:47.062Z,17.00
2018-05-13T03:15:14.694Z,17.00
2018-05-13T03:17:43.069Z,17.10
2018-05-13T03:20:10.853Z,17.10
2018-05-13T03:22:38.441Z,17.00
2018-05-13T03:25:06.129Z,17.10
2018-05-13T03:27:33.744Z,17.10
2018-05-13T03:30:01.400Z,17.10
2018-05-13T03:32:29.013Z,17.10
2018-05-13T03:34:57.388Z,17.00
2018-05-13T03:37:24.969Z,17.00
2018-05-13T03:39:52.582Z,17.00
2018-05-13T03:42:20.177Z,17.00
2018-05-13T03:44:47.883Z,17.10
2018-05-13T03:47:15.543Z,17.10
2018-05-13T03:49:43.942Z,17.10
2018-05-13T03:52:11.605Z,17.10
2018-05-13T03:54:39.277Z,17.20
2018-05-13T03:57:06.905Z,17.30
2018-05-13T03:59:35.293Z,17.20
2018-05-13T04:02:02.848Z,17.20
2018-05-13T04:04:31.283Z,17.20
2018-05-13T04:06:58.896Z,17.10
2018-05-13T04:09:38.555Z,17.20
2018-05-13T04:12:17.960Z,17.20
2018-05-13T04:14:58.288Z,17.00
2018-05-13T04:17:25.917Z,17.00
2018-05-13T04:19:53.599Z,16.90
2018-05-13T04:22:21.247Z,17.00
2018-05-13T04:24:48.837Z,16.90
2018-05-13T04:27:16.451Z,16.90
2018-05-13T04:29:44.061Z,17.00
2018-05-13T04:32:11.691Z,16.90
2018-05-13T04:34:39.272Z,16.90
2018-05-13T04:37:07.072Z,17.00
2018-05-13T04:39:35.680Z,16.90
2018-05-13T04:42:03.349Z,16.90
2018-05-13T04:44:30.975Z,16.80
2018-05-13T04:46:59.354Z,16.70
2018-05-13T04:49:27.765Z,16.60
2018-05-13T04:51:55.430Z,16.60
2018-05-13T04:54:23.250Z,16.60
2018-05-13T04:56:50.861Z,16.60
2018-05-13T04:59:18.440Z,16.70
2018-05-13T05:01:46.039Z,16.70
2018-05-13T05:04:14.427Z,16.80
2018-05-13T05:06:42.119Z,16.80
2018-05-13T05:09:09.775Z,16.80
2018-05-13T05:11:37.412Z,16.80
2018-05-13T05:14:05.789Z,16.80
2018-05-13T05:16:33.370Z,16.80
2018-05-13T05:19:00.989Z,16.80
2018-05-13T05:21:28.569Z,16.70
2018-05-13T05:23:58.055Z,16.80
2018-05-13T05:26:25.652Z,16.80
2018-05-13T05:28:55.433Z,16.90
2018-05-13T05:31:23.036Z,16.90
2018-05-13T05:33:50.644Z,17.00
2018-05-13T05:36:18.269Z,17.00
2018-05-13T05:38:45.848Z,17.10
2018-05-13T05:41:13.500Z,17.10
2018-05-13T05:43:41.060Z,17.30
2018-05-13T05:46:08.684Z,17.50
2018-05-13T05:48:36.281Z,17.60
2018-05-13T05:51:03.903Z,17.80
2018-05-13T05:53:32.307Z,18.00
2018-05-13T05:56:00.269Z,18.00
2018-05-13T05:58:27.844Z,18.30
2018-05-13T06:00:55.472Z,18.50
2018-05-13T06:03:23.973Z,19.40
2018-05-13T06:05:51.547Z,19.30
2018-05-13T06:08:19.202Z,19.70
2018-05-13T06:10:46.874Z,20.00
2018-05-13T06:13:14.502Z,20.20
2018-05-13T06:15:42.829Z,20.80
2018-05-13T06:18:10.442Z,20.80
2018-05-13T06:20:38.830Z,21.20
2018-05-13T06:23:06.419Z,21.20
2018-05-13T06:25:34.047Z,21.30
2018-05-13T06:28:02.461Z,21.30
2018-05-13T06:30:30.898Z,21.30
2018-05-13T06:32:59.277Z,21.90
2018-05-13T06:35:26.890Z,21.80
2018-05-13T06:37:54.531Z,22.00
2018-05-13T06:40:22.175Z,22.00
2018-05-13T06:42:49.773Z,21.70
2018-05-13T06:45:17.437Z,21.60
2018-05-13T06:47:45.817Z,21.30
2018-05-13T06:50:13.461Z,21.30
2018-05-13T06:52:41.110Z,21.20
2018-05-13T06:55:08.735Z,21.30
2018-05-13T06:57:36.337Z,21.30
2018-05-13T07:00:04.006Z,21.20
2018-05-13T07:02:31.605Z,21.20
2018-05-13T07:04:59.213Z,21.10
2018-05-13T07:07:26.883Z,21.20
2018-05-13T07:09:54.495Z,21.00
2018-05-13T07:12:22.081Z,20.90
2018-05-13T07:14:50.451Z,20.70
2018-05-13T07:17:18.787Z,20.70
2018-05-13T07:19:46.396Z,20.60
2018-05-13T07:22:14.767Z,20.40
2018-05-13T07:24:43.135Z,20.30
2018-05-13T07:27:11.508Z,20.40
2018-05-13T07:29:39.111Z,20.40
2018-05-13T07:32:06.698Z,20.60
2018-05-13T07:34:34.285Z,20.60
2018-05-13T07:37:01.897Z,20.60
2018-05-13T07:39:29.529Z,20.70
2018-05-13T07:41:57.937Z,20.70
2018-05-13T07:44:25.512Z,20.70
2018-05-13T07:46:53.125Z,20.70
2018-05-13T07:49:21.500Z,20.90
2018-05-13T07:51:49.861Z,21.00
2018-05-13T07:54:17.462Z,20.90
2018-05-13T07:56:45.070Z,21.00
2018-05-13T07:59:12.659Z,21.00
2018-05-13T08:01:40.285Z,21.10
2018-05-13T08:04:07.885Z,21.30
2018-05-13T08:06:36.254Z,21.40
2018-05-13T08:09:03.859Z,21.30
2018-05-13T08:11:31.425Z,21.40
2018-05-13T08:13:59.155Z,21.30
2018-05-13T08:16:27.594Z,21.70
2018-05-13T08:18:55.242Z,21.70
2018-05-13T08:21:22.845Z,21.80
2018-05-13T08:23:51.260Z,21.50
2018-05-13T08:26:18.867Z,21.40
2018-05-13T08:28:46.519Z,21.50
2018-05-13T08:31:14.168Z,21.60
2018-05-13T08:33:41.782Z,21.70
2018-05-13T08:36:10.496Z,22.00
2018-05-13T08:38:38.089Z,22.00
2018-05-13T08:41:06.464Z,22.00
2018-05-13T08:43:34.092Z,21.90
2018-05-13T08:46:01.684Z,22.10
2018-05-13T08:48:29.405Z,22.30
2018-05-13T08:50:56.957Z,22.20
2018-05-13T08:53:25.302Z,22.10
2018-05-13T08:55:52.921Z,22.00
2018-05-13T08:58:20.597Z,22.20
2018-05-13T09:00:48.177Z,22.30
2018-05-13T09:03:15.828Z,22.40
2018-05-13T09:05:43.439Z,22.30
2018-05-13T09:08:11.107Z,22.30
2018-05-13T09:10:39.435Z,22.30
2018-05-13T09:13:07.055Z,22.30
2018-05-13T09:15:34.646Z,22.30
2018-05-13T09:18:02.322Z,22.30
2018-05-13T09:20:29.964Z,22.30
2018-05-13T09:22:57.561Z,22.30
2018-05-13T09:25:25.163Z,22.40
2018-05-13T09:27:52.738Z,22.30
2018-05-13T09:30:20.351Z,22.30
2018-05-13T09:32:48.706Z,22.30
2018-05-13T09:35:16.324Z,22.20
2018-05-13T09:37:43.884Z,22.30
2018-05-13T09:40:11.573Z,22.30
2018-05-13T09:42:39.166Z,22.30
2018-05-13T09:45:06.739Z,22.50
2018-05-13T09:47:34.389Z,22.50
2018-05-13T09:50:01.996Z,22.30
2018-05-13T09:52:29.644Z,22.40
2018-05-13T09:54:57.239Z,22.50
2018-05-13T09:57:24.879Z,22.60
2018-05-13T09:59:52.479Z,22.70
2018-05-13T10:02:20.077Z,23.10
2018-05-13T10:04:47.784Z,23.20
2018-05-13T10:07:15.392Z,23.40
2018-05-13T10:09:43.789Z,23.40
2018-05-13T10:12:11.471Z,23.40
2018-05-13T10:14:39.117Z,23.40
2018-05-13T10:17:07.862Z,23.50
2018-05-13T10:19:35.522Z,23.60
2018-05-13T10:22:03.115Z,23.70
2018-05-13T10:24:31.551Z,23.70
2018-05-13T10:26:59.185Z,23.60
2018-05-13T10:29:29.753Z,23.50
2018-05-13T10:31:57.378Z,23.50
2018-05-13T10:34:27.195Z,23.60
2018-05-13T10:37:04.374Z,23.60
2018-05-13T10:39:32.855Z,23.70
2018-05-13T10:42:00.422Z,23.60
2018-05-13T10:44:28.028Z,23.60
2018-05-13T10:46:55.803Z,23.60
2018-05-13T10:49:24.168Z,23.70
2018-05-13T10:51:51.773Z,23.60
2018-05-13T10:54:19.391Z,23.60
2018-05-13T10:56:47.028Z,23.70
2018-05-13T10:59:14.656Z,23.60
2018-05-13T11:01:42.292Z,23.60
2018-05-13T11:04:10.672Z,23.60
2018-05-13T11:06:39.081Z,23.70
2018-05-13T11:09:06.655Z,23.70
2018-05-13T11:11:34.264Z,23.70
2018-05-13T11:14:02.674Z,24.10
2018-05-13T11:16:30.705Z,24.00
2018-05-13T11:18:58.325Z,24.30
2018-05-13T11:21:25.896Z,24.40
2018-05-13T11:23:53.517Z,24.30
2018-05-13T11:26:21.173Z,24.40
2018-05-13T11:28:48.812Z,24.30
2018-05-13T11:31:17.214Z,23.90
2018-05-13T11:33:44.827Z,23.90
2018-05-13T11:36:13.265Z,24.00
2018-05-13T11:38:40.982Z,24.00
2018-05-13T11:41:08.777Z,24.10
2018-05-13T11:43:37.191Z,24.60
2018-05-13T11:46:04.904Z,24.50
2018-05-13T11:48:32.465Z,24.40
2018-05-13T11:51:00.871Z,24.70
2018-05-13T11:53:28.485Z,24.60
2018-05-13T11:55:56.097Z,24.70
2018-05-13T11:58:24.460Z,25.20
2018-05-13T12:00:52.892Z,25.30
2018-05-13T12:03:20.544Z,25.30
2018-05-13T12:05:48.154Z,25.30
2018-05-13T12:08:15.735Z,25.30
2018-05-13T12:10:44.101Z,25.10
2018-05-13T12:13:12.512Z,25.00
2018-05-13T12:15:40.110Z,24.90
2018-05-13T12:18:07.728Z,24.90
2018-05-13T12:20:35.472Z,24.90
2018-05-13T12:23:03.984Z,25.10
2018-05-13T12:25:31.562Z,25.00
2018-05-13T12:27:59.164Z,24.90
2018-05-13T12:30:27.499Z,25.10
2018-05-13T12:32:55.082Z,24.90
2018-05-13T12:35:22.698Z,24.60
2018-05-13T12:37:50.326Z,24.10
2018-05-13T12:40:18.009Z,24.10
2018-05-13T12:42:46.457Z,24.00
2018-05-13T12:45:14.094Z,23.90
2018-05-13T12:47:41.713Z,23.90
2018-05-13T12:50:10.139Z,23.40
2018-05-13T12:52:37.755Z,23.40
2018-05-13T12:55:06.151Z,23.60
2018-05-13T12:57:34.614Z,23.60
2018-05-13T13:00:02.989Z,23.70
2018-05-13T13:02:31.434Z,23.60
2018-05-13T13:04:59.031Z,23.60
2018-05-13T13:07:27.867Z,23.10
2018-05-13T13:09:55.566Z,23.00
2018-05-13T13:12:23.901Z,22.50
2018-05-13T13:14:51.501Z,22.20
2018-05-13T13:17:19.746Z,21.90
2018-05-13T13:19:48.292Z,21.10
2018-05-13T13:22:15.989Z,19.80
2018-05-13T13:24:43.588Z,18.60
2018-05-13T13:27:12.022Z,18.00
2018-05-13T13:29:40.713Z,18.00
2018-05-13T13:32:08.295Z,17.70
2018-05-13T13:34:35.945Z,17.50
2018-05-13T13:37:03.568Z,17.40
2018-05-13T13:39:31.165Z,17.40
2018-05-13T13:41:58.756Z,17.20
2018-05-13T13:44:26.376Z,17.20
2018-05-13T13:46:53.994Z,17.00
2018-05-13T13:49:22.404Z,16.90
2018-05-13T13:51:50.025Z,16.90
2018-05-13T13:54:17.657Z,16.80
2018-05-13T13:56:45.241Z,16.90
2018-05-13T13:59:12.977Z,16.90
2018-05-13T14:01:40.572Z,16.90
2018-05-13T14:04:08.188Z,17.00
2018-05-13T14:06:35.822Z,17.00
2018-05-13T14:09:03.543Z,17.10
2018-05-13T14:11:31.166Z,17.10
2018-05-13T14:13:58.818Z,17.00
2018-05-13T14:16:26.502Z,17.00
2018-05-13T14:18:54.163Z,17.10
2018-05-13T14:21:21.803Z,17.10
2018-05-13T14:23:49.554Z,17.10
2018-05-13T14:26:17.157Z,17.00
2018-05-13T14:28:44.787Z,16.90
2018-05-13T14:31:12.444Z,16.80
2018-05-13T14:33:40.032Z,16.80
2018-05-13T14:36:07.664Z,16.80
2018-05-13T14:38:35.355Z,16.70
2018-05-13T14:41:03.129Z,16.70
2018-05-13T14:43:31.440Z,16.60
2018-05-13T14:45:59.865Z,16.40
2018-05-13T14:48:27.487Z,16.30
2018-05-13T14:50:55.878Z,16.30
2018-05-13T14:53:23.511Z,16.30
2018-05-13T14:55:51.865Z,16.20
2018-05-13T14:58:19.485Z,16.20
2018-05-13T15:00:47.091Z,16.10
2018-05-13T15:03:14.732Z,16.20
2018-05-13T15:05:42.361Z,16.20
2018-05-13T15:08:10.032Z,16.20
2018-05-13T15:10:37.644Z,16.10
2018-05-13T15:13:05.988Z,16.00
2018-05-13T15:15:33.593Z,16.00
2018-05-13T15:18:02.020Z,15.90
2018-05-13T15:20:29.657Z,15.90
2018-05-13T15:22:58.014Z,16.00
2018-05-13T15:25:25.698Z,16.00
2018-05-13T15:27:54.149Z,16.10
2018-05-13T15:30:21.778Z,16.10
2018-05-13T15:32:49.862Z,16.20
2018-05-13T15:35:17.460Z,16.10
2018-05-13T15:37:45.099Z,15.90
2018-05-13T15:40:12.734Z,15.80
2018-05-13T15:42:40.410Z,16.00
2018-05-13T15:45:08.092Z,15.80
2018-05-13T15:47:35.752Z,15.80
2018-05-13T15:50:03.422Z,15.70
2018-05-13T15:52:31.047Z,15.50
2018-05-13T15:54:58.707Z,15.60
2018-05-13T15:57:26.323Z,15.50
2018-05-13T15:59:53.985Z,15.50
2018-05-13T16:02:22.364Z,15.50
2018-05-13T16:04:50.718Z,15.40
2018-05-13T16:07:18.336Z,15.40
2018-05-13T16:09:46.003Z,15.40
2018-05-13T16:12:13.696Z,15.40
2018-05-13T16:14:41.312Z,15.30
2018-05-13T16:17:08.913Z,15.40
2018-05-13T16:19:36.570Z,15.40
2018-05-13T16:22:06.144Z,15.40
2018-05-13T16:24:33.744Z,15.40
2018-05-13T16:27:01.444Z,15.30
2018-05-13T16:29:29.807Z,15.30
2018-05-13T16:31:58.172Z,15.30
2018-05-13T16:34:25.786Z,15.20
2018-05-13T16:36:53.496Z,15.20
2018-05-13T16:39:21.257Z,15.20
2018-05-13T16:41:48.911Z,15.20
2018-05-13T16:44:16.507Z,15.10
2018-05-13T16:46:44.100Z,15.10
2018-05-13T16:49:11.760Z,15.10
2018-05-13T16:51:39.341Z,15.10
2018-05-13T16:54:07.126Z,15.10
2018-05-13T16:56:34.724Z,15.10
2018-05-13T16:59:03.125Z,15.30
2018-05-13T17:01:30.833Z,15.30
2018-05-13T17:03:59.255Z,15.30
2018-05-13T17:06:26.847Z,15.30
2018-05-13T17:08:54.414Z,15.30
2018-05-13T17:11:22.088Z,15.30
2018-05-13T17:13:49.755Z,15.40
2018-05-13T17:16:17.739Z,15.40
2018-05-13T17:18:46.069Z,15.50
2018-05-13T17:21:13.792Z,15.50
2018-05-13T17:23:41.448Z,15.60
2018-05-13T17:26:09.103Z,15.60
2018-05-13T17:28:36.702Z,15.70
2018-05-13T17:31:04.368Z,15.80
2018-05-13T17:33:32.223Z,15.90
2018-05-13T17:36:00.830Z,16.10
2018-05-13T17:38:28.440Z,16.10
2018-05-13T17:40:56.074Z,16.20
2018-05-13T17:43:23.834Z,16.20
2018-05-13T17:45:51.493Z,16.20
2018-05-13T17:48:19.104Z,16.20
2018-05-13T17:50:46.782Z,16.20
2018-05-13T17:53:14.384Z,16.10
2018-05-13T17:55:43.178Z,16.10
2018-05-13T17:58:11.052Z,16.10
2018-05-13T18:00:38.676Z,16.10
2018-05-13T18:03:07.391Z,16.10
2018-05-13T18:05:34.921Z,16.20
2018-05-13T18:08:02.535Z,16.20
2018-05-13T18:10:30.194Z,16.20
2018-05-13T18:12:57.790Z,16.20
2018-05-13T18:15:26.176Z,16.20
2018-05-13T18:17:53.810Z,16.20
2018-05-13T18:20:21.499Z,16.20
2018-05-13T18:22:49.171Z,16.30
2018-05-13T18:25:16.804Z,16.20
2018-05-13T18:27:44.442Z,16.20
2018-05-13T18:30:12.082Z,16.20
2018-05-13T18:32:39.679Z,16.20
2018-05-13T18:35:07.442Z,16.10
2018-05-13T18:37:35.043Z,16.10
2018-05-13T18:40:02.665Z,16.20
2018-05-13T18:42:30.269Z,16.20
2018-05-13T18:44:57.853Z,16.20
2018-05-13T18:47:25.532Z,16.20
2018-05-13T18:49:53.171Z,16.20
2018-05-13T18:52:20.781Z,16.20
2018-05-13T18:54:48.431Z,16.10
2018-05-13T18:57:16.023Z,16.00
2018-05-13T18:59:44.398Z,16.00
2018-05-13T19:02:12.898Z,16.00
2018-05-13T19:04:40.503Z,16.00
2018-05-13T19:07:08.130Z,15.90
2018-05-13T19:09:35.792Z,15.80
2018-05-13T19:12:03.401Z,15.80
2018-05-13T19:14:31.074Z,15.70
2018-05-13T19:16:59.591Z,15.60
2018-05-13T19:19:27.180Z,15.60
2018-05-13T19:21:54.816Z,15.60
2018-05-13T19:24:22.547Z,15.40
2018-05-13T19:26:50.909Z,15.30
2018-05-13T19:29:18.539Z,15.30
2018-05-13T19:31:46.148Z,15.20
2018-05-13T19:34:15.276Z,15.20
2018-05-13T19:36:43.102Z,15.10
2018-05-13T19:39:10.683Z,15.20
2018-05-13T19:41:39.066Z,15.30
2018-05-13T19:44:06.665Z,15.20
2018-05-13T19:46:34.296Z,15.30
2018-05-13T19:49:01.917Z,15.30
2018-05-13T19:51:31.360Z,15.20
2018-05-13T19:53:58.964Z,15.20
2018-05-13T19:56:27.111Z,15.20
2018-05-13T19:58:54.752Z,15.10
2018-05-13T20:01:22.420Z,15.20
2018-05-13T20:03:50.120Z,15.10
2018-05-13T20:06:17.758Z,15.00
2018-05-13T20:08:45.467Z,15.00
2018-05-13T20:11:13.052Z,14.90
2018-05-13T20:13:41.419Z,14.90
2018-05-13T20:16:09.875Z,14.90
2018-05-13T20:18:37.530Z,14.80
2018-05-13T20:21:05.144Z,14.90
2018-05-13T20:23:34.789Z,15.00
2018-05-13T20:26:02.468Z,15.10
2018-05-13T20:28:30.124Z,15.10
2018-05-13T20:30:57.814Z,15.10
2018-05-13T20:33:25.481Z,15.10
2018-05-13T20:35:53.182Z,15.10
2018-05-13T20:38:21.535Z,15.10
2018-05-13T20:40:49.173Z,15.10
2018-05-13T20:43:16.782Z,15.10
2018-05-13T20:45:44.430Z,15.10
2018-05-13T20:48:12.158Z,15.00
2018-05-13T20:50:39.834Z,15.00
2018-05-13T20:53:07.456Z,14.90
2018-05-13T20:55:35.111Z,15.00
2018-05-13T20:58:02.740Z,15.00
2018-05-13T21:00:31.306Z,15.10
2018-05-13T21:02:59.731Z,15.20
2018-05-13T21:05:27.408Z,15.10
2018-05-13T21:07:55.027Z,15.20
2018-05-13T21:10:23.439Z,15.30
2018-05-13T21:12:52.677Z,15.30
2018-05-13T21:15:21.039Z,15.30
2018-05-13T21:17:48.678Z,15.30
2018-05-13T21:20:16.303Z,15.40
2018-05-13T21:22:43.969Z,15.40
2018-05-13T21:25:11.558Z,15.40
2018-05-13T21:27:39.206Z,15.40
2018-05-13T21:30:06.884Z,15.50
2018-05-13T21:32:34.518Z,15.50
2018-05-13T21:35:02.149Z,15.50
2018-05-13T21:37:29.788Z,15.40
2018-05-13T21:39:58.227Z,15.50
2018-05-13T21:42:26.575Z,15.50
2018-05-13T21:44:54.190Z,15.50
2018-05-13T21:47:21.832Z,15.50
2018-05-13T21:49:49.454Z,15.50
2018-05-13T21:52:17.054Z,15.50
2018-05-13T21:54:44.661Z,15.60
2018-05-13T21:57:12.287Z,15.60
2018-05-13T21:59:39.891Z,15.70
2018-05-13T22:02:07.516Z,15.70
2018-05-13T22:04:35.224Z,15.80
2018-05-13T22:07:02.823Z,15.80
2018-05-13T22:09:30.447Z,15.70
2018-05-13T22:11:58.175Z,15.70
2018-05-13T22:14:25.783Z,15.60
2018-05-13T22:16:54.146Z,15.50
2018-05-13T22:19:21.847Z,15.50
2018-05-13T22:21:49.441Z,15.50
2018-05-13T22:24:17.069Z,15.60
2018-05-13T22:26:44.700Z,15.50
2018-05-13T22:29:13.100Z,15.60
2018-05-13T22:31:41.472Z,15.50
2018-05-13T22:34:09.821Z,15.50
2018-05-13T22:36:37.562Z,15.50
2018-05-13T22:39:05.088Z,15.50
2018-05-13T22:41:32.761Z,15.50
2018-05-13T22:44:00.382Z,15.40
2018-05-13T22:46:28.066Z,15.30
2018-05-13T22:48:56.609Z,15.50
2018-05-13T22:51:24.206Z,15.50
2018-05-13T22:53:52.613Z,15.50
2018-05-13T22:56:20.401Z,15.50
2018-05-13T22:58:48.021Z,15.40
2018-05-13T23:01:15.611Z,15.30
2018-05-13T23:03:43.272Z,15.30
2018-05-13T23:06:10.913Z,15.40
2018-05-13T23:08:38.576Z,15.40
2018-05-13T23:11:06.240Z,15.40
2018-05-13T23:13:34.879Z,15.40
2018-05-13T23:16:02.511Z,15.40
2018-05-13T23:18:30.275Z,15.40
2018-05-13T23:20:57.865Z,15.40
2018-05-13T23:23:25.467Z,15.40
2018-05-13T23:25:53.105Z,15.40
2018-05-13T23:28:20.682Z,15.40
2018-05-13T23:30:49.070Z,15.50
2018-05-13T23:33:16.665Z,15.50
2018-05-13T23:35:44.303Z,15.50
2018-05-13T23:38:11.906Z,15.50
2018-05-13T23:40:39.516Z,15.50
2018-05-13T23:43:07.139Z,15.50
2018-05-13T23:45:34.759Z,15.50
2018-05-13T23:48:02.376Z,15.50
2018-05-13T23:50:30.752Z,15.60
2018-05-13T23:52:59.116Z,15.70
2018-05-13T23:55:26.742Z,15.60
2018-05-13T23:57:54.341Z,15.70
